createdAt,value
2023-06-16T00:00:38.906Z,5.32
2023-06-16T00:03:06.645Z,4.70
2023-06-16T00:05:35.916Z,4.68
2023-06-16T00:08:04.352Z,4.90
2023-06-16T00:10:31.301Z,5.05
2023-06-16T00:12:58.002Z,4.72
2023-06-16T00:15:25.337Z,5.03
2023-06-16T00:17:52.276Z,4.18
2023-06-16T00:20:22.672Z,5.07
2023-06-16T00:22:50.286Z,4.72
2023-06-16T00:25:18.805Z,4.45
2023-06-16T00:27:46.174Z,5.57
2023-06-16T00:30:13.332Z,4.78
2023-06-16T00:32:39.955Z,4.53
2023-06-16T00:35:07.151Z,4.93
2023-06-16T00:37:36.556Z,4.68
2023-06-16T00:40:05.291Z,5.00
2023-06-16T00:42:31.953Z,5.65
2023-06-16T00:45:00.163Z,5.30
2023-06-16T00:47:27.156Z,4.90
2023-06-16T00:49:54.144Z,5.43
2023-06-16T00:52:24.776Z,5.65
2023-06-16T00:54:51.541Z,5.20
2023-06-16T00:57:18.702Z,5.13
2023-06-16T00:59:45.388Z,5.82
2023-06-16T01:02:12.243Z,5.43
2023-06-16T01:04:38.998Z,5.05
2023-06-16T01:07:10.764Z,4.57
2023-06-16T01:09:58.142Z,5.00
2023-06-16T01:12:24.647Z,5.00
2023-06-16T01:15:02.394Z,5.10
2023-06-16T01:17:31.403Z,5.20
2023-06-16T01:20:10.769Z,5.32
2023-06-16T01:22:49.427Z,4.82
2023-06-16T01:25:16.568Z,5.05
2023-06-16T01:27:48.763Z,5.15
2023-06-16T01:30:17.485Z,4.75
2023-06-16T01:32:47.802Z,5.20
2023-06-16T01:35:16.145Z,4.95
2023-06-16T01:37:44.797Z,5.30
2023-06-16T01:40:13.088Z,5.00
2023-06-16T01:42:39.709Z,5.18
2023-06-16T01:45:07.160Z,5.00
2023-06-16T01:47:35.857Z,4.97
2023-06-16T01:50:02.672Z,5.28
2023-06-16T01:52:29.486Z,5.13
2023-06-16T01:54:56.930Z,5.05
2023-06-16T01:57:23.818Z,5.10
2023-06-16T02:00:02.340Z,4.85
2023-06-16T02:02:46.817Z,5.32
2023-06-16T02:05:17.458Z,5.20
2023-06-16T02:07:46.028Z,5.28
2023-06-16T02:10:13.155Z,5.43
2023-06-16T02:12:40.436Z,5.20
2023-06-16T02:15:08.141Z,5.22
2023-06-16T02:17:34.734Z,6.05
2023-06-16T02:20:01.580Z,5.03
2023-06-16T02:22:28.139Z,6.95
2023-06-16T02:24:55.977Z,5.57
2023-06-16T02:27:22.618Z,5.85
2023-06-16T02:29:49.162Z,5.82
2023-06-16T02:32:15.911Z,6.10
2023-06-16T02:34:44.564Z,5.85
2023-06-16T02:37:13.489Z,5.28
2023-06-16T02:39:40.963Z,5.32
2023-06-16T02:42:09.017Z,5.55
2023-06-16T02:44:35.718Z,5.68
2023-06-16T02:47:05.199Z,5.32
2023-06-16T02:49:32.801Z,6.53
2023-06-16T02:52:00.094Z,6.20
2023-06-16T02:54:27.357Z,5.63
2023-06-16T02:56:55.357Z,5.43
2023-06-16T02:59:31.282Z,5.70
2023-06-16T03:01:58.237Z,4.97
2023-06-16T03:04:37.909Z,5.38
2023-06-16T03:07:11.221Z,5.10
2023-06-16T03:09:44.524Z,5.47
2023-06-16T03:12:12.716Z,5.93
2023-06-16T03:14:49.692Z,5.95
2023-06-16T03:17:21.827Z,6.07
2023-06-16T03:19:49.596Z,6.05
2023-06-16T03:22:19.955Z,6.03
2023-06-16T03:24:47.496Z,6.57
2023-06-16T03:27:16.443Z,6.43
2023-06-16T03:29:59.427Z,6.53
2023-06-16T03:32:28.597Z,5.88
2023-06-16T03:34:56.220Z,6.00
2023-06-16T03:37:22.758Z,5.32
2023-06-16T03:39:50.160Z,5.47
2023-06-16T03:42:16.709Z,5.25
2023-06-16T03:44:44.107Z,6.10
2023-06-16T03:47:10.761Z,5.95
2023-06-16T03:49:38.276Z,5.97
2023-06-16T03:52:05.317Z,5.70
2023-06-16T03:54:32.156Z,5.95
2023-06-16T03:56:59.018Z,6.35
2023-06-16T03:59:27.322Z,5.72
2023-06-16T04:01:54.341Z,6.03
2023-06-16T04:04:26.691Z,5.88
2023-06-16T04:06:53.549Z,6.68
2023-06-16T04:09:21.363Z,8.32
2023-06-16T04:11:48.024Z,7.68
2023-06-16T04:14:15.319Z,7.38
2023-06-16T04:16:43.703Z,9.15
2023-06-16T04:19:12.501Z,6.18
2023-06-16T04:21:42.164Z,6.20
2023-06-16T04:24:09.255Z,6.75
2023-06-16T04:26:38.780Z,6.32
2023-06-16T04:29:06.915Z,6.55
2023-06-16T04:31:38.487Z,7.05
2023-06-16T04:34:05.861Z,6.20
2023-06-16T04:36:36.537Z,6.38
2023-06-16T04:39:13.031Z,6.00
2023-06-16T04:41:40.101Z,6.22
2023-06-16T04:44:07.949Z,6.30
2023-06-16T04:46:34.730Z,6.75
2023-06-16T04:49:01.704Z,7.35
2023-06-16T04:51:29.344Z,7.60
2023-06-16T04:53:56.149Z,6.57
2023-06-16T04:56:22.888Z,6.80
2023-06-16T04:58:49.441Z,6.65
2023-06-16T05:01:15.986Z,6.03
2023-06-16T05:03:42.728Z,6.10
2023-06-16T05:06:09.817Z,6.00
2023-06-16T05:08:36.400Z,5.95
2023-06-16T05:11:03.159Z,6.53
2023-06-16T05:13:30.960Z,6.47
2023-06-16T05:15:58.116Z,5.82
2023-06-16T05:18:25.496Z,6.78
2023-06-16T05:20:52.192Z,7.35
2023-06-16T05:23:19.110Z,8.98
2023-06-16T05:25:46.426Z,7.85
2023-06-16T05:28:13.191Z,10.38
2023-06-16T05:30:40.117Z,6.68
2023-06-16T05:33:06.985Z,6.28
2023-06-16T05:35:33.807Z,6.90
2023-06-16T05:38:00.797Z,6.40
2023-06-16T05:40:28.474Z,7.57
2023-06-16T05:42:55.121Z,5.90
2023-06-16T05:45:21.790Z,6.38
2023-06-16T05:47:48.553Z,6.88
2023-06-16T05:50:16.356Z,7.15
2023-06-16T05:52:43.373Z,6.97
2023-06-16T05:55:10.140Z,6.07
2023-06-16T05:57:42.817Z,6.23
2023-06-16T06:00:10.671Z,5.72
2023-06-16T06:02:40.680Z,5.93
2023-06-16T06:05:16.542Z,6.15
2023-06-16T06:07:43.263Z,5.82
2023-06-16T06:10:11.087Z,6.93
2023-06-16T06:12:38.435Z,9.13
2023-06-16T06:15:06.348Z,7.45
2023-06-16T06:17:33.125Z,5.95
2023-06-16T06:19:59.922Z,5.80
2023-06-16T06:22:33.106Z,5.60
2023-06-16T06:25:02.330Z,5.32
2023-06-16T06:27:28.918Z,5.50
2023-06-16T06:29:55.649Z,5.53
2023-06-16T06:32:22.252Z,4.78
2023-06-16T06:34:48.860Z,5.10
2023-06-16T06:37:19.888Z,5.15
2023-06-16T06:39:47.749Z,5.20
2023-06-16T06:42:16.212Z,5.15
2023-06-16T06:44:51.181Z,4.82
2023-06-16T06:47:19.343Z,5.25
2023-06-16T06:49:50.942Z,4.93
2023-06-16T06:52:17.768Z,5.00
2023-06-16T06:54:44.309Z,5.13
2023-06-16T06:57:12.207Z,5.45
2023-06-16T06:59:40.099Z,4.97
2023-06-16T07:02:07.510Z,5.07
2023-06-16T07:04:35.915Z,5.18
2023-06-16T07:07:03.389Z,5.13
2023-06-16T07:09:31.327Z,4.70
2023-06-16T07:11:58.722Z,4.90
2023-06-16T07:14:25.710Z,4.85
2023-06-16T07:16:52.276Z,4.40
2023-06-16T07:19:19.081Z,5.57
2023-06-16T07:21:45.755Z,4.95
2023-06-16T07:24:12.344Z,4.28
2023-06-16T07:26:38.980Z,4.82
2023-06-16T07:29:07.721Z,5.10
2023-06-16T07:31:34.708Z,4.93
2023-06-16T07:34:01.246Z,4.90
2023-06-16T07:36:27.931Z,4.47
2023-06-16T07:38:54.671Z,4.35
2023-06-16T07:41:21.261Z,4.53
2023-06-16T07:43:49.476Z,5.30
2023-06-16T07:46:18.482Z,4.55
2023-06-16T07:48:45.417Z,4.68
2023-06-16T07:51:12.082Z,4.75
2023-06-16T07:53:41.181Z,5.50
2023-06-16T07:56:07.907Z,8.40
2023-06-16T07:58:36.424Z,6.03
2023-06-16T08:01:04.182Z,5.47
2023-06-16T08:03:32.076Z,5.80
2023-06-16T08:05:58.966Z,4.72
2023-06-16T08:08:29.114Z,5.80
2023-06-16T08:10:59.193Z,5.63
2023-06-16T08:13:26.642Z,4.82
2023-06-16T08:15:53.477Z,4.18
2023-06-16T08:18:20.344Z,4.88
2023-06-16T08:20:47.325Z,4.20
2023-06-16T08:23:14.334Z,4.13
2023-06-16T08:25:40.948Z,5.57
2023-06-16T08:28:08.854Z,4.40
2023-06-16T08:30:36.189Z,3.72
2023-06-16T08:33:03.459Z,4.35
2023-06-16T08:35:30.182Z,4.10
2023-06-16T08:37:56.899Z,4.50
2023-06-16T08:40:23.671Z,3.13
2023-06-16T08:42:52.132Z,3.40
2023-06-16T08:45:21.447Z,3.05
2023-06-16T08:47:48.286Z,3.22
2023-06-16T08:52:49.149Z,3.42
2023-06-16T08:55:16.666Z,5.43
2023-06-16T08:57:52.774Z,4.72
2023-06-16T09:00:20.645Z,4.28
2023-06-16T09:02:51.367Z,3.55
2023-06-16T09:05:19.316Z,3.72
2023-06-16T09:07:46.566Z,4.60
2023-06-16T09:10:14.078Z,5.15
2023-06-16T09:12:41.036Z,8.23
2023-06-16T09:15:09.897Z,4.60
2023-06-16T09:17:38.267Z,4.03
2023-06-16T09:20:08.826Z,3.83
2023-06-16T09:22:35.396Z,4.00
2023-06-16T09:25:06.337Z,4.95
2023-06-16T09:27:44.913Z,4.22
2023-06-16T09:30:13.973Z,3.80
2023-06-16T09:32:40.825Z,3.60
2023-06-16T09:35:21.020Z,3.50
2023-06-16T09:37:49.487Z,3.50
2023-06-16T09:40:17.821Z,3.50
2023-06-16T09:42:45.878Z,3.38
2023-06-16T09:45:16.747Z,3.40
2023-06-16T09:47:46.288Z,3.25
2023-06-16T09:50:18.568Z,3.75
2023-06-16T09:52:48.819Z,3.38
2023-06-16T09:55:16.372Z,3.40
2023-06-16T09:57:44.993Z,3.10
2023-06-16T10:00:19.781Z,3.78
2023-06-16T10:02:49.168Z,3.25
2023-06-16T10:05:19.367Z,3.30
2023-06-16T10:07:51.552Z,3.88
2023-06-16T10:10:23.158Z,3.72
2023-06-16T10:12:51.898Z,3.92
2023-06-16T10:15:23.127Z,3.60
2023-06-16T10:17:58.428Z,3.45
2023-06-16T10:20:26.947Z,3.58
2023-06-16T10:22:54.017Z,3.92
2023-06-16T10:25:21.395Z,2.90
2023-06-16T10:27:51.421Z,3.50
2023-06-16T10:30:20.356Z,4.75
2023-06-16T10:32:48.725Z,4.25
2023-06-16T10:35:15.851Z,3.55
2023-06-16T10:37:42.508Z,3.65
2023-06-16T10:40:13.690Z,4.03
2023-06-16T10:42:42.217Z,3.50
2023-06-16T10:45:33.384Z,4.18
2023-06-16T10:48:05.478Z,3.90
2023-06-16T10:50:43.863Z,3.30
2023-06-16T10:53:11.899Z,3.45
2023-06-16T10:55:42.447Z,3.88
2023-06-16T10:58:21.296Z,4.25
2023-06-16T11:01:06.243Z,4.20
2023-06-16T11:03:36.869Z,3.80
2023-06-16T11:06:04.186Z,3.80
2023-06-16T11:08:31.171Z,3.47
2023-06-16T11:11:03.868Z,3.25
2023-06-16T11:13:34.173Z,3.85
2023-06-16T11:16:01.424Z,3.65
2023-06-16T11:18:29.940Z,5.75
2023-06-16T11:21:02.443Z,3.95
2023-06-16T11:23:29.576Z,4.53
2023-06-16T11:26:08.892Z,3.55
2023-06-16T11:28:38.435Z,3.67
2023-06-16T11:31:09.953Z,3.58
2023-06-16T11:33:37.045Z,3.13
2023-06-16T11:36:24.548Z,3.33
2023-06-16T11:38:54.132Z,3.35
2023-06-16T11:41:26.243Z,9.70
2023-06-16T11:43:54.694Z,4.37
2023-06-16T11:46:25.249Z,4.78
2023-06-16T11:48:53.611Z,4.82
2023-06-16T11:51:21.742Z,3.50
2023-06-16T11:53:49.085Z,3.70
2023-06-16T11:56:17.270Z,5.32
2023-06-16T11:58:45.976Z,3.95
2023-06-16T12:01:15.699Z,3.45
2023-06-16T12:03:59.922Z,3.88
2023-06-16T12:06:31.605Z,3.63
2023-06-16T12:08:58.336Z,3.47
2023-06-16T12:11:29.834Z,3.92
2023-06-16T12:13:58.399Z,3.15
2023-06-16T12:16:53.262Z,3.03
2023-06-16T12:19:20.969Z,3.78
2023-06-16T12:21:52.788Z,3.38
2023-06-16T12:24:23.928Z,3.53
2023-06-16T12:26:54.154Z,3.85
2023-06-16T12:29:27.292Z,3.28
2023-06-16T12:31:56.152Z,4.03
2023-06-16T12:34:36.787Z,3.42
2023-06-16T12:37:12.149Z,3.63
2023-06-16T12:39:41.838Z,3.70
2023-06-16T12:42:11.202Z,3.70
2023-06-16T12:45:07.639Z,3.97
2023-06-16T12:47:35.835Z,3.20
2023-06-16T12:50:05.003Z,3.40
2023-06-16T12:52:32.040Z,3.47
2023-06-16T12:55:00.417Z,3.60
2023-06-16T12:57:28.083Z,3.67
2023-06-16T12:59:55.647Z,3.60
2023-06-16T13:02:23.054Z,3.53
2023-06-16T13:04:49.854Z,3.42
2023-06-16T13:07:16.671Z,3.53
2023-06-16T13:09:43.318Z,3.80
2023-06-16T13:12:10.162Z,3.28
2023-06-16T13:14:37.625Z,3.65
2023-06-16T13:17:05.122Z,3.33
2023-06-16T13:19:31.792Z,3.63
2023-06-16T13:21:59.085Z,3.50
2023-06-16T13:24:26.296Z,3.30
2023-06-16T13:26:53.057Z,3.60
2023-06-16T13:29:19.856Z,3.85
2023-06-16T13:31:46.585Z,3.30
2023-06-16T13:34:13.961Z,3.42
2023-06-16T13:36:43.317Z,3.60
2023-06-16T13:39:10.648Z,3.63
2023-06-16T13:41:37.549Z,3.38
2023-06-16T13:44:04.359Z,3.47
2023-06-16T13:46:30.980Z,3.55
2023-06-16T13:48:57.631Z,3.28
2023-06-16T13:51:24.404Z,3.67
2023-06-16T13:53:51.847Z,3.25
2023-06-16T13:56:18.619Z,3.63
2023-06-16T13:58:46.740Z,3.05
2023-06-16T14:01:13.672Z,3.28
2023-06-16T14:03:40.592Z,3.45
2023-06-16T14:06:07.867Z,3.20
2023-06-16T14:08:34.784Z,3.55
2023-06-16T14:11:01.491Z,3.45
2023-06-16T14:13:28.017Z,3.45
2023-06-16T14:15:54.686Z,3.40
2023-06-16T14:18:22.142Z,3.78
2023-06-16T14:20:49.262Z,3.53
2023-06-16T14:23:18.638Z,3.60
2023-06-16T14:25:46.504Z,3.60
2023-06-16T14:28:14.370Z,3.13
2023-06-16T14:30:41.258Z,3.30
2023-06-16T14:33:10.924Z,3.45
2023-06-16T14:35:38.709Z,3.03
2023-06-16T14:38:05.531Z,3.40
2023-06-16T14:40:32.362Z,3.67
2023-06-16T14:42:59.079Z,3.25
2023-06-16T14:45:25.804Z,3.78
2023-06-16T14:47:52.616Z,4.18
2023-06-16T14:50:19.594Z,3.80
2023-06-16T14:52:46.547Z,3.63
2023-06-16T14:55:13.174Z,3.42
2023-06-16T14:57:40.149Z,3.90
2023-06-16T15:00:07.386Z,3.50
2023-06-16T15:02:34.244Z,3.13
2023-06-16T15:05:01.226Z,3.22
2023-06-16T15:07:27.820Z,3.67
2023-06-16T15:09:54.460Z,3.38
2023-06-16T15:12:21.269Z,3.70
2023-06-16T15:14:47.942Z,4.57
2023-06-16T15:17:14.567Z,5.05
2023-06-16T15:19:42.212Z,4.00
2023-06-16T15:22:09.914Z,3.60
2023-06-16T15:24:36.647Z,3.33
2023-06-16T15:27:04.207Z,3.63
2023-06-16T15:29:30.937Z,3.85
2023-06-16T15:31:57.650Z,3.63
2023-06-16T15:34:24.582Z,3.42
2023-06-16T15:36:51.165Z,3.20
2023-06-16T15:39:19.630Z,4.40
2023-06-16T15:41:46.603Z,3.67
2023-06-16T15:44:13.264Z,3.08
2023-06-16T15:46:39.967Z,3.90
2023-06-16T15:49:06.566Z,3.38
2023-06-16T15:51:33.133Z,3.40
2023-06-16T15:53:59.798Z,4.13
2023-06-16T15:56:26.815Z,3.33
2023-06-16T15:58:53.412Z,3.95
2023-06-16T16:01:20.051Z,3.92
2023-06-16T16:03:46.792Z,3.40
2023-06-16T16:06:13.441Z,4.38
2023-06-16T16:08:40.028Z,4.25
2023-06-16T16:11:06.577Z,3.60
2023-06-16T16:13:33.095Z,4.50
2023-06-16T16:15:59.604Z,3.28
2023-06-16T16:18:26.252Z,3.70
2023-06-16T16:20:54.809Z,3.40
2023-06-16T16:23:21.634Z,4.10
2023-06-16T16:25:48.389Z,3.67
2023-06-16T16:28:14.957Z,3.78
2023-06-16T16:30:41.699Z,3.10
2023-06-16T16:33:08.513Z,3.60
2023-06-16T16:35:35.174Z,3.20
2023-06-16T16:38:01.772Z,3.45
2023-06-16T16:40:28.362Z,3.40
2023-06-16T16:42:56.991Z,3.30
2023-06-16T16:45:23.731Z,3.63
2023-06-16T16:47:51.067Z,3.60
2023-06-16T16:50:18.087Z,3.70
2023-06-16T16:52:44.907Z,4.00
2023-06-16T16:55:16.724Z,3.53
2023-06-16T16:57:57.873Z,3.55
2023-06-16T17:00:24.463Z,7.82
2023-06-16T17:02:51.139Z,4.07
2023-06-16T17:05:17.926Z,3.78
2023-06-16T17:07:44.541Z,3.80
2023-06-16T17:10:11.449Z,3.83
2023-06-16T17:12:38.117Z,3.45
2023-06-16T17:15:06.065Z,3.33
2023-06-16T17:17:32.628Z,3.53
2023-06-16T17:19:59.306Z,3.50
2023-06-16T17:22:26.333Z,3.63
2023-06-16T17:24:53.111Z,3.28
2023-06-16T17:27:19.700Z,3.85
2023-06-16T17:29:46.369Z,3.85
2023-06-16T17:32:13.019Z,4.03
2023-06-16T17:34:39.622Z,4.13
2023-06-16T17:37:06.574Z,3.63
2023-06-16T17:39:33.180Z,4.30
2023-06-16T17:41:59.840Z,4.30
2023-06-16T17:44:26.932Z,3.60
2023-06-16T17:46:53.569Z,3.90
2023-06-16T17:49:22.290Z,3.92
2023-06-16T17:51:48.828Z,3.85
2023-06-16T17:54:15.637Z,3.50
2023-06-16T17:56:42.301Z,3.83
2023-06-16T17:59:08.910Z,4.25
2023-06-16T18:01:35.661Z,3.65
2023-06-16T18:04:03.018Z,3.55
2023-06-16T18:06:29.654Z,3.70
2023-06-16T18:08:56.652Z,4.82
2023-06-16T18:11:23.512Z,3.80
2023-06-16T18:13:50.176Z,4.45
2023-06-16T18:16:16.953Z,4.50
2023-06-16T18:18:43.589Z,4.57
2023-06-16T18:21:10.197Z,3.65
2023-06-16T18:23:36.759Z,3.35
2023-06-16T18:26:03.442Z,3.47
2023-06-16T18:28:30.035Z,3.65
2023-06-16T18:30:59.868Z,3.83
2023-06-16T18:33:27.279Z,4.15
2023-06-16T18:35:54.404Z,4.30
2023-06-16T18:38:20.914Z,3.90
2023-06-16T18:40:47.912Z,3.97
2023-06-16T18:43:19.101Z,4.43
2023-06-16T18:45:45.726Z,5.38
2023-06-16T18:48:12.344Z,5.45
2023-06-16T18:50:38.947Z,4.40
2023-06-16T18:53:05.479Z,4.70
2023-06-16T18:55:33.627Z,4.40
2023-06-16T18:58:00.430Z,4.13
2023-06-16T19:00:27.209Z,3.63
2023-06-16T19:02:54.006Z,4.00
2023-06-16T19:05:20.743Z,3.90
2023-06-16T19:07:47.562Z,3.65
2023-06-16T19:10:14.659Z,3.55
2023-06-16T19:12:41.216Z,4.43
2023-06-16T19:15:08.733Z,4.07
2023-06-16T19:17:35.719Z,4.00
2023-06-16T19:20:05.502Z,4.18
2023-06-16T19:22:32.164Z,4.20
2023-06-16T19:24:58.714Z,3.80
2023-06-16T19:27:26.879Z,4.38
2023-06-16T19:29:55.521Z,4.25
2023-06-16T19:32:22.178Z,5.65
2023-06-16T19:34:48.781Z,5.18
2023-06-16T19:37:15.427Z,4.35
2023-06-16T19:39:41.962Z,4.38
2023-06-16T19:42:08.716Z,4.30
2023-06-16T19:44:35.403Z,3.70
2023-06-16T19:47:01.962Z,4.38
2023-06-16T19:49:28.611Z,4.05
2023-06-16T19:51:55.248Z,4.32
2023-06-16T19:54:22.338Z,3.90
2023-06-16T19:56:48.971Z,3.80
2023-06-16T19:59:15.655Z,4.00
2023-06-16T20:01:42.339Z,4.38
2023-06-16T20:04:08.959Z,3.97
2023-06-16T20:06:35.706Z,4.20
2023-06-16T20:09:02.288Z,4.82
2023-06-16T20:11:28.873Z,4.43
2023-06-16T20:13:55.468Z,4.50
2023-06-16T20:16:22.194Z,4.45
2023-06-16T20:18:48.761Z,5.35
2023-06-16T20:21:15.326Z,5.20
2023-06-16T20:23:43.477Z,5.70
2023-06-16T20:26:10.571Z,5.07
2023-06-16T20:28:37.756Z,5.63
2023-06-16T20:31:04.381Z,5.35
2023-06-16T20:33:31.072Z,5.30
2023-06-16T20:36:00.964Z,5.75
2023-06-16T20:38:33.079Z,5.13
2023-06-16T20:41:01.428Z,5.18
2023-06-16T20:43:28.147Z,5.68
2023-06-16T20:45:56.136Z,5.45
2023-06-16T20:48:23.253Z,5.75
2023-06-16T20:50:50.805Z,6.25
2023-06-16T20:53:20.768Z,6.82
2023-06-16T20:55:50.738Z,7.13
2023-06-16T20:58:17.821Z,5.80
2023-06-16T21:00:44.856Z,5.90
2023-06-16T21:03:11.593Z,5.93
2023-06-16T21:05:43.140Z,5.88
2023-06-16T21:08:10.635Z,5.60
2023-06-16T21:10:37.336Z,4.97
2023-06-16T21:13:04.004Z,6.13
2023-06-16T21:15:31.877Z,5.88
2023-06-16T21:18:00.851Z,5.32
2023-06-16T21:20:27.799Z,5.50
2023-06-16T21:22:54.335Z,5.88
2023-06-16T21:25:20.933Z,5.10
2023-06-16T21:27:47.764Z,4.97
2023-06-16T21:30:14.557Z,5.05
2023-06-16T21:32:41.903Z,5.03
2023-06-16T21:35:09.409Z,5.53
2023-06-16T21:37:36.565Z,5.55
2023-06-16T21:40:11.214Z,5.75
2023-06-16T21:42:39.882Z,5.88
2023-06-16T21:45:08.157Z,4.70
2023-06-16T21:47:36.132Z,5.68
2023-06-16T21:50:04.639Z,5.88
2023-06-16T21:52:31.630Z,5.93
2023-06-16T21:55:01.087Z,6.10
2023-06-16T21:57:29.303Z,5.60
2023-06-16T21:59:56.656Z,5.78
2023-06-16T22:02:23.576Z,5.75
2023-06-16T22:04:50.452Z,5.95
2023-06-16T22:07:19.973Z,6.90
2023-06-16T22:09:48.036Z,7.38
2023-06-16T22:12:16.212Z,6.57
2023-06-16T22:14:44.525Z,6.82
2023-06-16T22:17:14.753Z,6.60
2023-06-16T22:19:42.689Z,5.93
2023-06-16T22:22:10.199Z,5.95
2023-06-16T22:24:39.443Z,5.78
2023-06-16T22:27:19.865Z,5.90
2023-06-16T22:29:47.804Z,6.32
2023-06-16T22:32:14.929Z,5.93
2023-06-16T22:34:41.728Z,6.43
2023-06-16T22:37:09.251Z,6.20
2023-06-16T22:39:37.289Z,6.40
2023-06-16T22:42:04.255Z,6.80
2023-06-16T22:44:31.218Z,5.97
2023-06-16T22:46:58.525Z,6.38
2023-06-16T22:49:25.636Z,6.47
2023-06-16T22:51:58.338Z,7.45
2023-06-16T22:54:26.393Z,6.38
2023-06-16T22:56:53.134Z,6.15
2023-06-16T22:59:19.920Z,5.93
2023-06-16T23:01:46.573Z,6.22
2023-06-16T23:04:13.466Z,5.55
2023-06-16T23:06:40.270Z,5.90
2023-06-16T23:09:07.243Z,6.32
2023-06-16T23:11:33.941Z,5.85
2023-06-16T23:14:00.624Z,6.80
2023-06-16T23:16:28.088Z,6.38
2023-06-16T23:18:54.843Z,6.47
2023-06-16T23:21:22.605Z,6.78
2023-06-16T23:23:50.171Z,7.65
2023-06-16T23:26:18.238Z,7.00
2023-06-16T23:28:45.445Z,6.45
2023-06-16T23:31:12.846Z,7.15
2023-06-16T23:33:40.782Z,6.90
2023-06-16T23:36:07.754Z,7.13
2023-06-16T23:38:37.225Z,7.18
2023-06-16T23:41:04.376Z,7.40
2023-06-16T23:43:31.893Z,6.90
2023-06-16T23:45:58.664Z,6.93
2023-06-16T23:48:25.540Z,7.03
2023-06-16T23:50:52.105Z,6.72
2023-06-16T23:53:18.740Z,7.10
2023-06-16T23:55:45.814Z,7.72
2023-06-16T23:58:12.542Z,7.10
